^^
Station Historical Data
Daily Summary for January 2, 2017 Units:  Metric    English   Both
« Previous Day
Next Day »
Daily Weekly Monthly Yearly Custom
  High: Low: Average:
Temperature: 31.2 °C 21.7 °C 24.3 °C
Dew Point: 20.2 °C 17.2 °C 19.1 °C
Humidity: 87% 45% 74%
Wind Speed: 17.7km/h 0km/h 1.8km/h
Wind Gust: 19.3km/h - -
Wind- - WSW
Pressure: 1008 hPa 1003.6 hPa -
Precipitation: 0.76 mm    
Historical Graphs
 
 
Tabular Data for January 2, 2017
Time Temperature Dew Point Pressure Wind Wind Speed Wind Gust Humidity Rainfall Rate (Hourly) solar Conditions
00:36 21.8 °C 19.4 °C 1008 hPa Calm     86% 0 mm 0.0 W/m2
00:41 21.8 °C 19.4 °C 1008 hPa Calm     86% 0 mm 0.0 W/m2
00:46 21.9 °C 19.5 °C 1007.3 hPa Calm     86% 0 mm 0.0 W/m2
00:51 21.9 °C 19.5 °C 1007.3 hPa Calm     86% 0 mm 0.0 W/m2
00:56 21.9 °C 19.5 °C 1007 hPa Calm     86% 0 mm 0.0 W/m2
01:01 21.8 °C 19.4 °C 1006.7 hPa Calm     86% 0 mm 0.0 W/m2
01:06 21.8 °C 19.4 °C 1006.3 hPa Calm     86% 0 mm 0.0 W/m2
01:16 21.9 °C 19.5 °C 1005 hPa Calm     86% 0 mm 0.0 W/m2
01:31 21.7 °C 19.4 °C 1003.9 hPa Calm     87% 0 mm 0.0 W/m2
01:37 21.7 °C 19.4 °C 1004.3 hPa Calm     87% 0 mm 0.0 W/m2
01:42 21.7 °C 19.3 °C 1004.3 hPa Calm     86% 0 mm 0.0 W/m2
01:47 21.7 °C 19.3 °C 1003.9 hPa Calm     86% 0 mm 0.0 W/m2
01:52 21.8 °C 19.4 °C 1004.3 hPa Calm     86% 0 mm 0.0 W/m2
01:57 21.8 °C 19.2 °C 1004.3 hPa Calm     85% 0 mm 0.0 W/m2
02:07 21.8 °C 19 °C 1003.9 hPa Calm     84% 0 mm 0.0 W/m2
02:17 21.9 °C 19.3 °C 1003.9 hPa Calm     85% 0 mm 0.0 W/m2
02:22 21.9 °C 19.3 °C 1004.3 hPa Calm     85% 0 mm 0.0 W/m2
02:27 21.9 °C 19.3 °C 1004.3 hPa Calm     85% 0 mm 0.0 W/m2
02:33 21.9 °C 19.3 °C 1004.3 hPa Calm     85% 0 mm 0.0 W/m2
02:43 21.9 °C 19.3 °C 1004.6 hPa Calm     85% 0 mm 0.0 W/m2
02:48 21.9 °C 19.3 °C 1004.6 hPa Calm     85% 0 mm 0.0 W/m2
02:54 22 °C 19.5 °C 1004.6 hPa Calm     86% 0 mm 0.0 W/m2
02:59 22.1 °C 19.8 °C 1004.6 hPa Calm     87% 0 mm 0.0 W/m2
03:04 22.1 °C 19.6 °C 1004.6 hPa Calm   3.2 km/h 86% 0 mm 0.0 W/m2
03:09 22.1 °C 19.6 °C 1004.6 hPa Calm   6.4 km/h 86% 0 mm 0.0 W/m2
03:14 22.1 °C 19.6 °C 1004.6 hPa WSW 7.9 km/h 11.3 km/h 86% 0 mm 0.0 W/m2
03:19 22 °C 19.5 °C 1004.6 hPa WSW 7.9 km/h 11.3 km/h 86% 0 mm 0.0 W/m2
03:25 22 °C 19.5 °C 1004.6 hPa Calm   12.9 km/h 86% 0 mm 0.0 W/m2
03:30 22 °C 19.5 °C 1004.3 hPa Calm     86% 0 mm 0.0 W/m2
03:35 22.1 °C 19.5 °C 1004.3 hPa WSW 6.4 km/h 11.3 km/h 85% 0 mm 0.0 W/m2
03:40 22.1 °C 19.5 °C 1004.6 hPa WSW 13 km/h 13 km/h 85% 0 mm 0.0 W/m2
03:50 22.1 °C 19.6 °C 1004.6 hPa WSW 11.1 km/h 12.9 km/h 86% 0 mm 0.0 W/m2
04:04 22.2 °C 19.6 °C 1004.6 hPa Calm   11.3 km/h 85% 0 mm 0.0 W/m2
04:32 22.3 °C 19.7 °C 1004.6 hPa Calm     85% 0 mm 0.0 W/m2
04:42 22.4 °C 19.8 °C 1004.6 hPa Calm     85% 0 mm 0.0 W/m2
04:58 22.5 °C 20.2 °C 1005 hPa Calm     87% 0 mm 0.0 W/m2
05:08 22.6 °C 19.4 °C 1005 hPa WSW 9.7 km/h 9.7 km/h 82% 0 mm 0.0 W/m2
05:23 23 °C 19.6 °C 1005.3 hPa Calm     81% 0 mm 0.0 W/m2
05:28 23 °C 19.6 °C 1005.3 hPa Calm     81% 0 mm 0.0 W/m2
05:38 23 °C 19.6 °C 1005.3 hPa Calm     81% 0 mm 0.0 W/m2
05:44 22.9 °C 19.9 °C 1005.6 hPa Calm     83% 0 mm 0.0 W/m2
05:54 22.9 °C 18.9 °C 1005.6 hPa WSW 4.7 km/h 9.7 km/h 78% 0 mm 0.0 W/m2
05:58 23.2 °C 18.9 °C 1005.6 hPa WSW 1.4 km/h 8 km/h 77% 0 mm 0.0 W/m2
06:09 23.3 °C 19.2 °C 1005.6 hPa WSW 6.4 km/h 8 km/h 78% 0 mm 0.0 W/m2
06:24 23.2 °C 19.1 °C 1005.6 hPa Calm     78% 0 mm 0.0 W/m2
06:29 23.2 °C 18.9 °C 1005.6 hPa Calm     77% 0 mm 5.0 W/m2
06:56 23.1 °C 19.5 °C 1006 hPa Calm     80% 0 mm 35.0 W/m2
06:59 23.2 °C 19.4 °C 1006 hPa Calm     79% 0 mm 46.0 W/m2
07:09 23.1 °C 19.1 °C 1006 hPa Calm     78% 0 mm 53.0 W/m2
07:14 23.2 °C 19.1 °C 1006 hPa Calm     78% 0 mm 74.0 W/m2
07:24 23.4 °C 19.3 °C 1006 hPa Calm     78% 0 mm 70.0 W/m2
07:40 23.3 °C 19 °C 1006 hPa Calm     77% 0.51 mm 54.0 W/m2
07:54 23.2 °C 19.4 °C 1006.3 hPa Calm     79% 0.51 mm 139.0 W/m2
10:46 27.4 °C 18.4 °C 1006 hPa Calm     58% 0 mm 443.0 W/m2
11:00 26.9 °C 18.5 °C 1006 hPa SW 4.7 km/h 12.9 km/h 60% 0 mm 381.0 W/m2
11:07 26.7 °C 17.7 °C 1006.3 hPa Calm     58% 0 mm 515.0 W/m2
11:21 27 °C 18 °C 1006.3 hPa Calm     58% 0 mm 751.0 W/m2
11:27 27.3 °C 18.9 °C 1006.3 hPa Calm   17.7 km/h 60% 0 mm 642.0 W/m2
11:41 27.9 °C 18.9 °C 1006 hPa SW 7.9 km/h 14.5 km/h 58% 0 mm 1007.0 W/m2
11:57 28 °C 17.5 °C 1006 hPa Calm   4.8 km/h 53% 0 mm 483.0 W/m2
12:02 28 °C 18.7 °C 1006 hPa Calm     57% 0 mm 490.0 W/m2
12:07 28 °C 18.1 °C 1006 hPa Calm     55% 0 mm 550.0 W/m2
12:11 28.1 °C 19.1 °C 1006 hPa Calm   9.7 km/h 58% 0 mm 719.0 W/m2
12:16 28.2 °C 18.9 °C 1006 hPa SW 6.4 km/h 8 km/h 57% 0 mm 584.0 W/m2
12:34 28.4 °C 18.8 °C 1005.6 hPa WSW 4.7 km/h 11.3 km/h 56% 0 mm 522.0 W/m2
12:48 28.2 °C 18.3 °C 1005.6 hPa Calm     55% 0 mm 1334.0 W/m2
13:03 28.9 °C 18.7 °C 1005.6 hPa Calm     54% 0 mm 522.0 W/m2
13:12 28.8 °C 18 °C 1005.3 hPa Calm     52% 0 mm 603.0 W/m2
13:34 29.2 °C 18.3 °C 1005 hPa Calm     52% 0 mm 1167.0 W/m2
13:42 30.1 °C 17.2 °C 1004.6 hPa Calm     46% 0 mm 1034.0 W/m2
13:58 29.9 °C 18 °C 1004.6 hPa Calm   11.3 km/h 49% 0 mm 944.0 W/m2
14:08 30.5 °C 18.6 °C 1004.6 hPa WSW 4.7 km/h 4.8 km/h 49% 0 mm 519.0 W/m2
14:23 31.1 °C 17.8 °C 1004.3 hPa Calm     45% 0 mm 1072.0 W/m2
14:41 31.2 °C 18.2 °C 1003.9 hPa Calm     46% 0 mm 1190.0 W/m2
14:55 30.2 °C 18 °C 1003.9 hPa WSW 4.7 km/h 6.4 km/h 48% 0 mm 221.0 W/m2
15:05 29.6 °C 17.4 °C 1003.9 hPa Calm     48% 0 mm 183.0 W/m2
16:37 28.1 °C 19.1 °C 1003.6 hPa SW 13 km/h 14.5 km/h 58% 0 mm 83.0 W/m2
16:46 28 °C 19 °C 1003.6 hPa SSW 17.7 km/h 19.3 km/h 58% 0 mm 58.0 W/m2
Canyon Roadhouse, Fishriver Canyon, Namibia
Compliments of Weather Underground - 2 mb